createdAt,value
2017-09-20T00:00:49.682Z,18.50
2017-09-20T00:01:49.693Z,18.50
2017-09-20T00:02:49.638Z,18.50
2017-09-20T00:03:49.671Z,20.40
2017-09-20T00:04:49.649Z,20.40
2017-09-20T00:05:49.604Z,20.40
2017-09-20T00:06:49.674Z,20.40
2017-09-20T00:07:49.684Z,20.40
2017-09-20T00:08:49.611Z,20.40
2017-09-20T00:09:49.644Z,20.40
2017-09-20T00:10:49.611Z,20.40
2017-09-20T00:11:49.608Z,20.40
2017-09-20T00:12:49.613Z,20.40
2017-09-20T00:13:49.661Z,17.80
2017-09-20T00:14:49.662Z,17.80
2017-09-20T00:15:49.579Z,17.80
2017-09-20T00:16:49.704Z,17.80
2017-09-20T00:17:49.661Z,17.80
2017-09-20T00:18:49.596Z,17.80
2017-09-20T00:19:49.634Z,17.80
2017-09-20T00:20:49.633Z,17.80
2017-09-20T00:21:49.641Z,17.80
2017-09-20T00:22:49.577Z,17.80
2017-09-20T00:23:49.647Z,22.30
2017-09-20T00:24:49.647Z,22.30
2017-09-20T00:25:49.709Z,22.30
2017-09-20T00:26:49.659Z,22.30
2017-09-20T00:27:49.776Z,22.30
2017-09-20T00:28:49.715Z,22.30
2017-09-20T00:29:49.653Z,22.30
2017-09-20T00:30:49.717Z,22.30
2017-09-20T00:31:49.655Z,22.30
2017-09-20T00:32:49.601Z,22.30
2017-09-20T00:33:49.673Z,26.40
2017-09-20T00:34:49.718Z,26.40
2017-09-20T00:35:49.654Z,26.40
2017-09-20T00:36:49.722Z,26.40
2017-09-20T00:37:49.659Z,26.40
2017-09-20T00:38:49.723Z,26.40
2017-09-20T00:39:49.654Z,26.40
2017-09-20T00:40:49.721Z,26.40
2017-09-20T00:41:49.660Z,26.40
2017-09-20T00:42:49.735Z,26.40
2017-09-20T00:43:49.664Z,31.10
2017-09-20T00:44:49.663Z,31.10
2017-09-20T00:45:49.723Z,31.10
2017-09-20T00:46:49.660Z,31.10
2017-09-20T00:47:49.726Z,31.10
2017-09-20T00:48:49.663Z,31.10
2017-09-20T00:49:49.728Z,31.10
2017-09-20T00:50:49.729Z,31.10
2017-09-20T00:51:49.665Z,31.10
2017-09-20T00:52:49.730Z,31.10
2017-09-20T00:53:49.642Z,27.30
2017-09-20T00:54:49.711Z,27.30
2017-09-20T00:55:49.708Z,27.30
2017-09-20T00:56:49.647Z,27.30
2017-09-20T00:57:49.700Z,27.30
2017-09-20T00:58:49.841Z,27.30
2017-09-20T00:59:49.615Z,27.30
2017-09-20T01:00:49.662Z,27.30
2017-09-20T01:01:49.701Z,27.30
2017-09-20T01:02:49.681Z,27.30
2017-09-20T01:03:49.733Z,29.50
2017-09-20T01:04:49.673Z,29.50
2017-09-20T01:05:49.670Z,29.50
2017-09-20T01:06:49.721Z,29.50
2017-09-20T01:07:49.674Z,29.50
2017-09-20T01:08:49.753Z,29.50
2017-09-20T01:09:49.674Z,29.50
2017-09-20T01:10:49.723Z,29.50
2017-09-20T01:11:49.681Z,29.50
2017-09-20T01:12:49.625Z,29.50
2017-09-20T01:13:49.746Z,24.40
2017-09-20T01:14:49.626Z,24.40
2017-09-20T01:15:49.752Z,24.40
2017-09-20T01:16:49.713Z,24.40
2017-09-20T01:17:49.671Z,24.40
2017-09-20T01:18:49.654Z,24.40
2017-09-20T01:19:49.711Z,24.40
2017-09-20T01:20:49.717Z,24.40
2017-09-20T01:21:49.711Z,24.40
2017-09-20T01:22:49.673Z,24.40
2017-09-20T01:23:49.649Z,28.40
2017-09-20T01:24:49.617Z,28.40
2017-09-20T01:25:49.646Z,28.40
2017-09-20T01:26:49.715Z,28.40
2017-09-20T01:27:49.642Z,28.40
2017-09-20T01:28:49.688Z,28.40
2017-09-20T01:29:49.658Z,28.40
2017-09-20T01:30:49.650Z,28.40
2017-09-20T01:31:49.659Z,28.40
2017-09-20T01:32:49.705Z,28.40
2017-09-20T01:33:49.691Z,30.30
2017-09-20T01:34:49.688Z,30.30
2017-09-20T01:35:49.780Z,30.30
2017-09-20T01:36:49.695Z,30.30
2017-09-20T01:37:49.753Z,30.30
2017-09-20T01:38:49.692Z,30.30
2017-09-20T01:39:49.739Z,30.30
2017-09-20T01:40:49.764Z,30.30
2017-09-20T01:41:49.695Z,30.30
2017-09-20T01:42:49.758Z,30.30
2017-09-20T01:43:49.726Z,30.90
2017-09-20T01:44:49.668Z,30.90
2017-09-20T01:45:49.672Z,30.90
2017-09-20T01:46:49.647Z,30.90
2017-09-20T01:47:49.732Z,30.90
2017-09-20T01:48:49.730Z,30.90
2017-09-20T01:49:49.671Z,30.90
2017-09-20T01:50:49.739Z,30.90
2017-09-20T01:51:49.729Z,30.90
2017-09-20T01:52:49.742Z,30.90
2017-09-20T01:53:49.762Z,29.40
2017-09-20T01:54:49.704Z,29.40
2017-09-20T01:55:49.764Z,29.40
2017-09-20T01:56:49.711Z,29.40
2017-09-20T01:57:49.706Z,29.40
2017-09-20T01:58:49.753Z,29.40
2017-09-20T01:59:49.709Z,29.40
2017-09-20T02:00:49.750Z,29.40
2017-09-20T02:01:49.754Z,29.40
2017-09-20T02:02:49.705Z,29.40
2017-09-20T02:03:49.768Z,29.40
2017-09-20T02:04:49.660Z,30.60
2017-09-20T02:05:49.662Z,30.60
2017-09-20T02:06:49.672Z,30.60
2017-09-20T02:07:49.663Z,30.60
2017-09-20T02:08:49.706Z,30.60
2017-09-20T02:09:49.703Z,30.60
2017-09-20T02:10:49.685Z,30.60
2017-09-20T02:11:49.712Z,30.60
2017-09-20T02:12:49.662Z,30.60
2017-09-20T02:13:49.638Z,30.60
2017-09-20T02:14:49.726Z,28.40
2017-09-20T02:15:49.690Z,28.40
2017-09-20T02:16:49.755Z,28.40
2017-09-20T02:17:49.712Z,28.40
2017-09-20T02:18:49.792Z,28.40
2017-09-20T02:19:49.762Z,28.40
2017-09-20T02:20:49.761Z,28.40
2017-09-20T02:21:49.693Z,28.40
2017-09-20T02:22:49.778Z,28.40
2017-09-20T02:23:49.736Z,28.40
2017-09-20T02:24:49.751Z,30.80
2017-09-20T02:25:49.729Z,30.80
2017-09-20T02:26:49.688Z,30.80
2017-09-20T02:27:49.695Z,30.80
2017-09-20T02:28:49.694Z,30.80
2017-09-20T02:29:49.692Z,30.80
2017-09-20T02:30:49.719Z,30.80
2017-09-20T02:31:49.754Z,30.80
2017-09-20T02:32:49.762Z,30.80
2017-09-20T02:33:49.768Z,30.80
2017-09-20T02:34:49.732Z,29.40
2017-09-20T02:35:49.787Z,29.40
2017-09-20T02:36:49.737Z,29.40
2017-09-20T02:37:49.786Z,29.40
2017-09-20T02:39:49.696Z,29.40
2017-09-20T02:40:49.732Z,29.40
2017-09-20T02:41:49.796Z,29.40
2017-09-20T02:42:49.736Z,29.40
2017-09-20T02:43:49.793Z,29.40
2017-09-20T02:44:49.683Z,27.90
2017-09-20T02:45:49.667Z,27.90
2017-09-20T02:46:49.701Z,27.90
2017-09-20T02:47:49.722Z,27.90
2017-09-20T02:48:49.757Z,27.90
2017-09-20T02:49:49.749Z,27.90
2017-09-20T02:50:49.686Z,27.90
2017-09-20T02:51:49.725Z,27.90
2017-09-20T02:52:49.706Z,27.90
2017-09-20T02:53:49.700Z,27.90
2017-09-20T02:54:49.735Z,30.80
2017-09-20T02:55:49.797Z,30.80
2017-09-20T02:56:49.745Z,30.80
2017-09-20T02:57:49.804Z,30.80
2017-09-20T02:58:49.748Z,30.80
2017-09-20T02:59:49.807Z,30.80
2017-09-20T03:00:49.744Z,30.80
2017-09-20T03:01:49.808Z,30.80
2017-09-20T03:02:49.739Z,30.80
2017-09-20T03:03:49.741Z,30.80
2017-09-20T03:04:49.734Z,29.40
2017-09-20T03:05:49.718Z,29.40
2017-09-20T03:06:49.693Z,29.40
2017-09-20T03:07:49.712Z,29.40
2017-09-20T03:08:49.781Z,29.40
2017-09-20T03:09:49.737Z,29.40
2017-09-20T03:10:49.718Z,29.40
2017-09-20T03:11:49.717Z,29.40
2017-09-20T03:12:49.762Z,29.40
2017-09-20T03:13:49.739Z,29.40
2017-09-20T03:14:49.813Z,28.20
2017-09-20T03:15:49.754Z,28.20
2017-09-20T03:16:49.816Z,28.20
2017-09-20T03:17:49.752Z,28.20
2017-09-20T03:18:49.799Z,28.20
2017-09-20T03:19:49.751Z,28.20
2017-09-20T03:20:49.814Z,28.20
2017-09-20T03:21:49.755Z,28.20
2017-09-20T03:22:49.820Z,28.20
2017-09-20T03:23:49.756Z,28.20
2017-09-20T03:24:49.819Z,28.50
2017-09-20T03:25:49.757Z,28.50
2017-09-20T03:26:49.834Z,28.50
2017-09-20T03:27:49.759Z,28.50
2017-09-20T03:28:49.817Z,28.50
2017-09-20T03:29:49.757Z,28.50
2017-09-20T03:30:49.821Z,28.50
2017-09-20T03:31:49.764Z,28.50
2017-09-20T03:32:49.822Z,28.50
2017-09-20T03:33:49.760Z,28.50
2017-09-20T03:34:49.820Z,26.90
2017-09-20T03:35:49.761Z,26.90
2017-09-20T03:36:49.824Z,26.90
2017-09-20T03:37:49.765Z,26.90
2017-09-20T03:38:49.825Z,26.90
2017-09-20T03:39:49.772Z,26.90
2017-09-20T03:40:49.783Z,26.90
2017-09-20T03:41:49.825Z,26.90
2017-09-20T03:42:49.771Z,26.90
2017-09-20T03:43:49.769Z,26.90
2017-09-20T03:44:49.796Z,28.90
2017-09-20T03:45:49.760Z,28.90
2017-09-20T03:46:49.741Z,28.90
2017-09-20T03:47:49.778Z,28.90
2017-09-20T03:48:49.811Z,28.90
2017-09-20T03:49:49.762Z,28.90
2017-09-20T03:50:49.803Z,28.90
2017-09-20T03:51:49.833Z,28.90
2017-09-20T03:52:49.785Z,28.90
2017-09-20T03:53:49.804Z,28.90
2017-09-20T03:54:49.773Z,28.20
2017-09-20T03:55:49.842Z,28.20
2017-09-20T03:56:49.777Z,28.20
2017-09-20T03:57:49.843Z,28.20
2017-09-20T03:58:49.774Z,28.20
2017-09-20T03:59:49.840Z,28.20
2017-09-20T04:00:49.777Z,28.20
2017-09-20T04:01:49.837Z,28.20
2017-09-20T04:02:49.781Z,28.20
2017-09-20T04:03:49.840Z,28.20
2017-09-20T04:05:49.779Z,32.70
2017-09-20T04:06:49.843Z,32.70
2017-09-20T04:07:49.779Z,32.70
2017-09-20T04:08:49.845Z,32.70
2017-09-20T04:09:49.787Z,32.70
2017-09-20T04:10:49.779Z,32.70
2017-09-20T04:11:49.846Z,32.70
2017-09-20T04:12:49.810Z,32.70
2017-09-20T04:13:49.786Z,32.70
2017-09-20T04:14:49.786Z,31.99
2017-09-20T04:15:49.732Z,31.99
2017-09-20T04:16:49.802Z,31.99
2017-09-20T04:17:49.750Z,31.99
2017-09-20T04:18:49.756Z,31.99
2017-09-20T04:19:49.744Z,31.99
2017-09-20T04:20:49.787Z,31.99
2017-09-20T04:21:49.738Z,31.99
2017-09-20T04:22:49.791Z,31.99
2017-09-20T04:23:49.744Z,31.99
2017-09-20T04:24:49.796Z,25.90
2017-09-20T04:25:49.854Z,25.90
2017-09-20T04:26:49.795Z,25.90
2017-09-20T04:27:49.862Z,25.90
2017-09-20T04:28:49.793Z,25.90
2017-09-20T04:29:49.856Z,25.90
2017-09-20T04:30:49.791Z,25.90
2017-09-20T04:31:49.856Z,25.90
2017-09-20T04:32:49.792Z,25.90
2017-09-20T04:33:49.861Z,25.90
2017-09-20T04:34:49.794Z,33.50
2017-09-20T04:35:49.800Z,33.50
2017-09-20T04:36:49.843Z,33.50
2017-09-20T04:37:49.858Z,33.50
2017-09-20T04:38:49.803Z,33.50
2017-09-20T04:39:49.861Z,33.50
2017-09-20T04:40:49.808Z,33.50
2017-09-20T04:41:49.864Z,33.50
2017-09-20T04:42:49.802Z,33.50
2017-09-20T04:43:49.866Z,33.50
2017-09-20T04:44:49.809Z,27.99
2017-09-20T04:45:49.850Z,27.99
2017-09-20T04:46:49.865Z,27.99
2017-09-20T04:47:49.807Z,27.99
2017-09-20T04:48:49.865Z,27.99
2017-09-20T04:49:49.805Z,27.99
2017-09-20T04:50:49.865Z,27.99
2017-09-20T04:51:49.806Z,27.99
2017-09-20T04:52:49.866Z,27.99
2017-09-20T04:53:49.806Z,27.99
2017-09-20T04:54:49.759Z,29.30
2017-09-20T04:55:49.855Z,29.30
2017-09-20T04:56:49.778Z,29.30
2017-09-20T04:57:49.870Z,29.30
2017-09-20T04:58:49.781Z,29.30
2017-09-20T04:59:49.860Z,29.30
2017-09-20T05:00:49.846Z,29.30
2017-09-20T05:01:49.827Z,29.30
2017-09-20T05:02:49.805Z,29.30
2017-09-20T05:03:49.860Z,29.30
2017-09-20T05:04:49.790Z,25.80
2017-09-20T05:05:49.789Z,25.80
2017-09-20T05:06:49.791Z,25.80
2017-09-20T05:07:49.791Z,25.80
2017-09-20T05:08:49.859Z,25.80
2017-09-20T05:09:49.834Z,25.80
2017-09-20T05:10:49.810Z,25.80
2017-09-20T05:11:49.853Z,25.80
2017-09-20T05:12:49.791Z,25.80
2017-09-20T05:13:49.767Z,25.80
2017-09-20T05:14:49.867Z,25.30
2017-09-20T05:15:49.884Z,25.30
2017-09-20T05:16:49.823Z,25.30
2017-09-20T05:17:49.889Z,25.30
2017-09-20T05:18:49.827Z,25.30
2017-09-20T05:19:49.883Z,25.30
2017-09-20T05:20:49.824Z,25.30
2017-09-20T05:21:49.888Z,25.30
2017-09-20T05:22:49.825Z,25.30
2017-09-20T05:23:49.929Z,25.30
2017-09-20T05:24:49.795Z,26.00
2017-09-20T05:25:49.787Z,26.00
2017-09-20T05:26:49.940Z,26.00
2017-09-20T05:27:49.774Z,26.00
2017-09-20T05:28:49.776Z,26.00
2017-09-20T05:29:49.849Z,26.00
2017-09-20T05:30:49.762Z,26.00
2017-09-20T05:31:49.764Z,26.00
2017-09-20T05:32:49.853Z,26.00
2017-09-20T05:33:49.754Z,26.00
2017-09-20T05:34:49.838Z,30.90
2017-09-20T05:35:49.803Z,30.90
2017-09-20T05:36:49.781Z,30.90
2017-09-20T05:37:49.828Z,30.90
2017-09-20T05:38:49.835Z,30.90
2017-09-20T05:39:49.809Z,30.90
2017-09-20T05:40:49.809Z,30.90
2017-09-20T05:41:49.851Z,30.90
2017-09-20T05:42:49.789Z,30.90
2017-09-20T05:43:49.876Z,30.90
2017-09-20T05:44:49.748Z,32.90
2017-09-20T05:45:49.779Z,32.90
2017-09-20T05:46:49.747Z,32.90
2017-09-20T05:47:49.749Z,32.90
2017-09-20T05:48:49.804Z,32.90
2017-09-20T05:49:49.806Z,32.90
2017-09-20T05:50:49.775Z,32.90
2017-09-20T05:51:49.797Z,32.90
2017-09-20T05:52:49.802Z,32.90
2017-09-20T05:53:49.800Z,32.90
2017-09-20T05:54:49.845Z,34.00
2017-09-20T05:55:49.859Z,34.00
2017-09-20T05:56:49.839Z,34.00
2017-09-20T05:57:49.809Z,34.00
2017-09-20T05:58:49.810Z,34.00
2017-09-20T05:59:49.872Z,34.00
2017-09-20T06:00:49.806Z,34.00
2017-09-20T06:01:49.810Z,34.00
2017-09-20T06:02:49.815Z,34.00
2017-09-20T06:03:49.865Z,34.00
2017-09-20T06:04:49.877Z,31.40
2017-09-20T06:05:49.790Z,31.40
2017-09-20T06:06:49.876Z,31.40
2017-09-20T06:07:49.797Z,31.40
2017-09-20T06:08:49.866Z,31.40
2017-09-20T06:09:49.818Z,31.40
2017-09-20T06:10:49.864Z,31.40
2017-09-20T06:11:49.849Z,31.40
2017-09-20T06:12:49.888Z,31.40
2017-09-20T06:13:49.816Z,31.40
2017-09-20T06:14:49.900Z,39.99
2017-09-20T06:15:49.851Z,39.99
2017-09-20T06:16:49.901Z,39.99
2017-09-20T06:17:49.854Z,39.99
2017-09-20T06:18:49.895Z,39.99
2017-09-20T06:19:49.912Z,39.99
2017-09-20T06:20:50.014Z,39.99
2017-09-20T06:21:49.855Z,39.99
2017-09-20T06:22:49.891Z,39.99
2017-09-20T06:23:49.856Z,39.99
2017-09-20T06:24:49.856Z,30.99
2017-09-20T06:25:49.929Z,30.99
2017-09-20T06:26:49.925Z,30.99
2017-09-20T06:27:49.857Z,30.99
2017-09-20T06:28:49.880Z,30.99
2017-09-20T06:29:49.811Z,30.99
2017-09-20T06:30:49.910Z,30.99
2017-09-20T06:31:49.863Z,30.99
2017-09-20T06:32:49.867Z,30.99
2017-09-20T06:33:49.862Z,30.99
2017-09-20T06:34:49.914Z,34.99
2017-09-20T06:35:49.864Z,34.99
2017-09-20T06:36:49.833Z,34.99
2017-09-20T06:37:49.868Z,34.99
2017-09-20T06:38:49.860Z,34.99
2017-09-20T06:39:49.862Z,34.99
2017-09-20T06:40:49.881Z,34.99
2017-09-20T06:41:49.873Z,34.99
2017-09-20T06:42:49.938Z,34.99
2017-09-20T06:43:49.850Z,34.99
2017-09-20T06:44:49.868Z,33.90
2017-09-20T06:45:49.806Z,33.90
2017-09-20T06:46:49.833Z,33.90
2017-09-20T06:47:49.805Z,33.90
2017-09-20T06:48:49.835Z,33.90
2017-09-20T06:49:49.807Z,33.90
2017-09-20T06:50:49.875Z,33.90
2017-09-20T06:51:49.840Z,33.90
2017-09-20T06:52:49.805Z,33.90
2017-09-20T06:53:49.814Z,33.90
2017-09-20T06:54:49.826Z,36.40
2017-09-20T06:55:49.880Z,36.40
2017-09-20T06:56:49.831Z,36.40
2017-09-20T06:57:49.880Z,36.40
2017-09-20T06:58:49.873Z,36.40
2017-09-20T06:59:49.880Z,36.40
2017-09-20T07:00:49.877Z,36.40
2017-09-20T07:01:49.881Z,36.40
2017-09-20T07:02:49.887Z,36.40
2017-09-20T07:03:49.882Z,36.40
2017-09-20T07:04:49.911Z,30.70
2017-09-20T07:05:49.879Z,30.70
2017-09-20T07:06:49.834Z,30.70
2017-09-20T07:07:49.880Z,30.70
2017-09-20T07:08:49.930Z,30.70
2017-09-20T07:09:49.933Z,30.70
2017-09-20T07:10:49.883Z,30.70
2017-09-20T07:11:49.869Z,30.70
2017-09-20T07:12:49.932Z,30.70
2017-09-20T07:13:49.873Z,30.70
2017-09-20T07:14:49.851Z,33.30
2017-09-20T07:15:49.855Z,33.30
2017-09-20T07:16:49.852Z,33.30
2017-09-20T07:17:49.828Z,33.30
2017-09-20T07:18:49.828Z,33.30
2017-09-20T07:19:49.861Z,33.30
2017-09-20T07:20:49.891Z,33.30
2017-09-20T07:21:49.910Z,33.30
2017-09-20T07:22:49.862Z,33.30
2017-09-20T07:23:49.897Z,33.30
2017-09-20T07:24:49.895Z,31.80
2017-09-20T07:25:49.941Z,31.80
2017-09-20T07:26:49.903Z,31.80
2017-09-20T07:27:49.895Z,31.80
2017-09-20T07:28:49.943Z,31.80
2017-09-20T07:29:49.900Z,31.80
2017-09-20T07:30:49.948Z,31.80
2017-09-20T07:31:49.854Z,31.80
2017-09-20T07:32:49.896Z,31.80
2017-09-20T07:33:49.901Z,31.80
2017-09-20T07:34:50.061Z,28.30
2017-09-20T07:35:49.946Z,28.30
2017-09-20T07:36:49.898Z,28.30
2017-09-20T07:37:49.963Z,28.30
2017-09-20T07:38:49.900Z,28.30
2017-09-20T07:39:49.899Z,28.30
2017-09-20T07:40:49.950Z,28.30
2017-09-20T07:41:49.861Z,28.30
2017-09-20T07:42:49.910Z,28.30
2017-09-20T07:43:49.955Z,28.30
2017-09-20T07:44:49.904Z,30.40
2017-09-20T07:45:49.841Z,30.40
2017-09-20T07:46:49.921Z,30.40
2017-09-20T07:47:49.905Z,30.40
2017-09-20T07:48:49.877Z,30.40
2017-09-20T07:49:49.920Z,30.40
2017-09-20T07:50:49.924Z,30.40
2017-09-20T07:51:49.908Z,30.40
2017-09-20T07:52:49.874Z,30.40
2017-09-20T07:53:49.847Z,30.40
2017-09-20T07:54:49.878Z,26.50
2017-09-20T07:55:49.874Z,26.50
2017-09-20T07:56:50.079Z,26.50
2017-09-20T07:57:49.946Z,26.50
2017-09-20T07:58:49.880Z,26.50
2017-09-20T07:59:49.929Z,26.50
2017-09-20T08:00:49.883Z,26.50
2017-09-20T08:01:49.923Z,26.50
2017-09-20T08:02:49.925Z,26.50
2017-09-20T08:03:49.924Z,26.50
2017-09-20T08:04:49.896Z,27.60
2017-09-20T08:05:49.887Z,27.60
2017-09-20T08:06:49.888Z,27.60
2017-09-20T08:07:49.980Z,27.60
2017-09-20T08:08:49.973Z,27.60
2017-09-20T08:09:49.971Z,27.60
2017-09-20T08:10:49.925Z,27.60
2017-09-20T08:11:49.973Z,27.60
2017-09-20T08:12:49.927Z,27.60
2017-09-20T08:13:49.921Z,27.60
2017-09-20T08:14:49.967Z,26.90
2017-09-20T08:15:49.878Z,26.90
2017-09-20T08:16:49.973Z,26.90
2017-09-20T08:17:49.973Z,26.90
2017-09-20T08:18:49.970Z,26.90
2017-09-20T08:19:49.944Z,26.90
2017-09-20T08:20:49.973Z,26.90
2017-09-20T08:21:49.927Z,26.90
2017-09-20T08:22:49.947Z,26.90
2017-09-20T08:23:49.882Z,26.90
2017-09-20T08:24:49.927Z,27.60
2017-09-20T08:25:49.883Z,27.60
2017-09-20T08:26:49.928Z,27.60
2017-09-20T08:27:49.983Z,27.60
2017-09-20T08:28:49.930Z,27.60
2017-09-20T08:29:49.935Z,27.60
2017-09-20T08:30:50.005Z,27.60
2017-09-20T08:31:49.932Z,27.60
2017-09-20T08:32:49.975Z,27.60
2017-09-20T08:33:49.991Z,27.60
2017-09-20T08:34:49.936Z,21.70
2017-09-20T08:35:49.978Z,21.70
2017-09-20T08:36:49.950Z,21.70
2017-09-20T08:37:49.938Z,21.70
2017-09-20T08:38:49.980Z,21.70
2017-09-20T08:39:50.011Z,21.70
2017-09-20T08:40:49.937Z,21.70
2017-09-20T08:41:49.943Z,21.70
2017-09-20T08:42:49.993Z,21.70
2017-09-20T08:43:49.992Z,21.70
2017-09-20T08:44:49.989Z,19.20
2017-09-20T08:45:49.990Z,19.20
2017-09-20T08:46:49.954Z,19.20
2017-09-20T08:47:49.921Z,19.20
2017-09-20T08:48:49.989Z,19.20
2017-09-20T08:49:49.948Z,19.20
2017-09-20T08:50:50.014Z,19.20
2017-09-20T08:51:49.989Z,19.20
2017-09-20T08:52:49.995Z,19.20
2017-09-20T08:53:49.910Z,19.20
2017-09-20T08:54:49.907Z,19.00
2017-09-20T08:55:49.922Z,19.00
2017-09-20T08:56:49.910Z,19.00
2017-09-20T08:57:49.864Z,19.00
2017-09-20T08:58:49.916Z,19.00
2017-09-20T08:59:49.911Z,19.00
2017-09-20T09:00:49.912Z,19.00
2017-09-20T09:01:49.870Z,19.00
2017-09-20T09:02:49.959Z,19.00
2017-09-20T09:03:49.913Z,19.00
2017-09-20T09:04:49.996Z,11.99
2017-09-20T09:05:49.930Z,11.99
2017-09-20T09:06:49.995Z,11.99
2017-09-20T09:07:50.005Z,11.99
2017-09-20T09:08:49.994Z,11.99
2017-09-20T09:09:50.009Z,11.99
2017-09-20T09:10:50.009Z,11.99
2017-09-20T09:11:49.903Z,11.99
2017-09-20T09:12:49.953Z,11.99
2017-09-20T09:13:49.943Z,11.99
2017-09-20T09:14:49.900Z,7.40
2017-09-20T09:15:49.959Z,7.40
2017-09-20T09:16:49.901Z,7.40
2017-09-20T09:17:49.986Z,7.40
2017-09-20T09:18:49.958Z,7.40
2017-09-20T09:19:49.960Z,7.40
2017-09-20T09:20:49.937Z,7.40
2017-09-20T09:21:50.005Z,7.40
2017-09-20T09:22:49.969Z,7.40
2017-09-20T09:23:49.963Z,7.40
2017-09-20T09:24:49.965Z,9.80
2017-09-20T09:25:50.015Z,9.80
2017-09-20T09:26:49.947Z,9.80
2017-09-20T09:27:49.941Z,9.80
2017-09-20T09:28:49.914Z,9.80
2017-09-20T09:29:49.969Z,9.80
2017-09-20T09:30:49.930Z,9.80
2017-09-20T09:31:50.014Z,9.80
2017-09-20T09:32:49.994Z,9.80
2017-09-20T09:33:49.969Z,9.80
2017-09-20T09:34:50.005Z,8.50
2017-09-20T09:35:49.983Z,8.50
2017-09-20T09:36:49.949Z,8.50
2017-09-20T09:37:49.928Z,8.50
2017-09-20T09:38:49.945Z,8.50
2017-09-20T09:39:49.986Z,8.50
2017-09-20T09:40:49.983Z,8.50
2017-09-20T09:41:50.011Z,8.50
2017-09-20T09:42:49.967Z,8.50
2017-09-20T09:43:49.949Z,8.50
2017-09-20T09:44:50.017Z,9.20
2017-09-20T09:45:49.981Z,9.20
2017-09-20T09:46:49.941Z,9.20
2017-09-20T09:47:49.942Z,9.20
2017-09-20T09:48:50.008Z,9.20
2017-09-20T09:49:49.980Z,9.20
2017-09-20T09:50:49.949Z,9.20
2017-09-20T09:51:49.977Z,9.20
2017-09-20T09:52:49.974Z,9.20
2017-09-20T09:53:49.985Z,9.20
2017-09-20T09:54:49.956Z,9.20
2017-09-20T09:55:49.939Z,6.90
2017-09-20T09:56:50.028Z,6.90
2017-09-20T09:57:50.025Z,6.90
2017-09-20T09:58:49.982Z,6.90
2017-09-20T09:59:49.962Z,6.90
2017-09-20T10:00:50.029Z,6.90
2017-09-20T10:01:49.943Z,6.90
2017-09-20T10:02:49.962Z,6.90
2017-09-20T10:03:50.039Z,6.90
2017-09-20T10:04:50.029Z,6.90
2017-09-20T10:05:49.995Z,7.20
2017-09-20T10:06:49.954Z,7.20
2017-09-20T10:07:50.002Z,7.20
2017-09-20T10:08:49.961Z,7.20
2017-09-20T10:09:49.963Z,7.20
2017-09-20T10:10:49.959Z,7.20
2017-09-20T10:11:50.023Z,7.20
2017-09-20T10:12:49.982Z,7.20
2017-09-20T10:13:49.933Z,7.20
2017-09-20T10:14:50.020Z,7.20
2017-09-20T10:15:50.027Z,8.60
2017-09-20T10:16:49.938Z,8.60
2017-09-20T10:17:49.996Z,8.60
2017-09-20T10:18:49.994Z,8.60
2017-09-20T10:19:50.009Z,8.60
2017-09-20T10:20:49.942Z,8.60
2017-09-20T10:21:49.941Z,8.60
2017-09-20T10:22:49.955Z,8.60
2017-09-20T10:23:50.011Z,8.60
2017-09-20T10:24:50.001Z,8.60
2017-09-20T10:25:49.966Z,10.00
2017-09-20T10:26:49.995Z,10.00
2017-09-20T10:27:50.001Z,10.00
2017-09-20T10:28:49.965Z,10.00
2017-09-20T10:29:49.996Z,10.00
2017-09-20T10:30:49.936Z,10.00
2017-09-20T10:31:49.966Z,10.00
2017-09-20T10:32:50.000Z,10.00
2017-09-20T10:33:49.947Z,10.00
2017-09-20T10:34:49.937Z,10.00
2017-09-20T10:35:50.013Z,7.40
2017-09-20T10:36:50.071Z,7.40
2017-09-20T10:37:50.036Z,7.40
2017-09-20T10:38:50.073Z,7.40
2017-09-20T10:39:50.009Z,7.40
2017-09-20T10:40:50.013Z,7.40
2017-09-20T10:41:50.060Z,7.40
2017-09-20T10:42:50.077Z,7.40
2017-09-20T10:43:50.050Z,7.40
2017-09-20T10:44:50.005Z,7.40
2017-09-20T10:45:49.955Z,8.00
2017-09-20T10:46:49.944Z,8.00
2017-09-20T10:47:49.948Z,8.00
2017-09-20T10:48:49.955Z,8.00
2017-09-20T10:49:49.975Z,8.00
2017-09-20T10:50:49.946Z,8.00
2017-09-20T10:51:49.979Z,8.00
2017-09-20T10:52:50.010Z,8.00
2017-09-20T10:53:49.951Z,8.00
2017-09-20T10:54:49.985Z,8.00
2017-09-20T10:55:50.054Z,7.40
2017-09-20T10:56:50.059Z,7.40
2017-09-20T10:57:50.066Z,7.40
2017-09-20T10:58:49.977Z,7.40
2017-09-20T10:59:50.000Z,7.40
2017-09-20T11:00:50.065Z,7.40
2017-09-20T11:01:50.022Z,7.40
2017-09-20T11:02:50.067Z,7.40
2017-09-20T11:03:49.979Z,7.40
2017-09-20T11:04:50.064Z,7.40
2017-09-20T11:05:50.060Z,11.20
2017-09-20T11:06:50.064Z,11.20
2017-09-20T11:07:49.986Z,11.20
2017-09-20T11:08:50.021Z,11.20
2017-09-20T11:09:50.054Z,11.20
2017-09-20T11:10:49.968Z,11.20
2017-09-20T11:11:50.058Z,11.20
2017-09-20T11:12:50.022Z,11.20
2017-09-20T11:13:49.998Z,11.20
2017-09-20T11:14:50.066Z,11.20
2017-09-20T11:15:50.067Z,7.20
2017-09-20T11:16:50.035Z,7.20
2017-09-20T11:17:50.057Z,7.20
2017-09-20T11:18:50.009Z,7.20
2017-09-20T11:19:50.011Z,7.20
2017-09-20T11:20:50.016Z,7.20
2017-09-20T11:21:49.978Z,7.20
2017-09-20T11:22:50.001Z,7.20
2017-09-20T11:23:50.013Z,7.20
2017-09-20T11:24:49.980Z,7.20
2017-09-20T11:25:50.032Z,6.10
2017-09-20T11:26:50.014Z,6.10
2017-09-20T11:27:50.078Z,6.10
2017-09-20T11:28:50.040Z,6.10
2017-09-20T11:29:49.995Z,6.10
2017-09-20T11:30:50.037Z,6.10
2017-09-20T11:31:50.086Z,6.10
2017-09-20T11:32:50.001Z,6.10
2017-09-20T11:33:50.018Z,6.10
2017-09-20T11:34:50.044Z,6.10
2017-09-20T11:35:50.077Z,6.90
2017-09-20T11:36:50.008Z,6.90
2017-09-20T11:37:50.049Z,6.90
2017-09-20T11:38:50.079Z,6.90
2017-09-20T11:39:50.039Z,6.90
2017-09-20T11:40:50.039Z,6.90
2017-09-20T11:41:50.081Z,6.90
2017-09-20T11:42:50.016Z,6.90
2017-09-20T11:43:50.076Z,6.90
2017-09-20T11:44:49.988Z,6.90
2017-09-20T11:45:50.011Z,4.90
2017-09-20T11:46:50.043Z,4.90
2017-09-20T11:47:49.976Z,4.90
2017-09-20T11:48:49.978Z,4.90
2017-09-20T11:49:49.982Z,4.90
2017-09-20T11:50:50.043Z,4.90
2017-09-20T11:51:50.008Z,4.90
2017-09-20T11:52:49.998Z,4.90
2017-09-20T11:53:49.985Z,4.90
2017-09-20T11:54:50.011Z,4.90
2017-09-20T11:55:50.084Z,6.10
2017-09-20T11:56:50.030Z,6.10
2017-09-20T11:57:50.003Z,6.10
2017-09-20T11:58:50.028Z,6.10
2017-09-20T11:59:50.085Z,6.10
2017-09-20T12:00:50.093Z,6.10
2017-09-20T12:01:50.068Z,6.10
2017-09-20T12:02:50.020Z,6.10
2017-09-20T12:03:50.031Z,6.10
2017-09-20T12:04:50.057Z,6.10
2017-09-20T12:05:50.066Z,5.60
2017-09-20T12:06:50.105Z,5.60
2017-09-20T12:07:50.023Z,5.60
2017-09-20T12:08:50.004Z,5.60
2017-09-20T12:09:50.028Z,5.60
2017-09-20T12:10:50.045Z,5.60
2017-09-20T12:11:50.044Z,5.60
2017-09-20T12:12:50.090Z,5.60
2017-09-20T12:13:50.060Z,5.60
2017-09-20T12:14:50.067Z,5.60
2017-09-20T12:15:50.006Z,6.10
2017-09-20T12:16:50.003Z,6.10
2017-09-20T12:17:50.071Z,6.10
2017-09-20T12:18:50.143Z,6.10
2017-09-20T12:19:50.063Z,6.10
2017-09-20T12:20:50.090Z,6.10
2017-09-20T12:21:50.011Z,6.10
2017-09-20T12:22:50.074Z,6.10
2017-09-20T12:23:50.046Z,6.10
2017-09-20T12:24:50.119Z,6.10
2017-09-20T12:25:50.015Z,2.90
2017-09-20T12:26:50.086Z,2.90
2017-09-20T12:27:50.084Z,2.90
2017-09-20T12:28:50.040Z,2.90
2017-09-20T12:29:50.071Z,2.90
2017-09-20T12:30:50.066Z,2.90
2017-09-20T12:31:50.130Z,2.90
2017-09-20T12:32:50.055Z,2.90
2017-09-20T12:33:50.019Z,2.90
2017-09-20T12:34:50.072Z,2.90
2017-09-20T12:35:50.088Z,2.50
2017-09-20T12:36:50.114Z,2.50
2017-09-20T12:37:50.033Z,2.50
2017-09-20T12:38:50.054Z,2.50
2017-09-20T12:39:50.021Z,2.50
2017-09-20T12:40:50.042Z,2.50
2017-09-20T12:41:50.042Z,2.50
2017-09-20T12:42:50.116Z,2.50
2017-09-20T12:43:50.117Z,2.50
2017-09-20T12:44:50.072Z,2.50
2017-09-20T12:45:50.080Z,3.60
2017-09-20T12:46:50.129Z,3.60
2017-09-20T12:47:50.032Z,3.60
2017-09-20T12:48:50.084Z,3.60
2017-09-20T12:49:50.029Z,3.60
2017-09-20T12:50:50.067Z,3.60
2017-09-20T12:51:50.083Z,3.60
2017-09-20T12:52:50.126Z,3.60
2017-09-20T12:53:50.047Z,3.60
2017-09-20T12:54:50.094Z,3.60
2017-09-20T12:55:50.138Z,2.90
2017-09-20T12:56:50.100Z,2.90
2017-09-20T12:57:50.087Z,2.90
2017-09-20T12:58:50.068Z,2.90
2017-09-20T12:59:50.137Z,2.90
2017-09-20T13:00:50.077Z,2.90
2017-09-20T13:01:50.115Z,2.90